Time;durP1;ratioP1;P1;durP2;ratioP2;P2;SDS_P1;SDS_P2;PMS_P1;PMS_P2;Temp;Humidity;BMP_temperature;BMP_pressure;BME280_temperature;BME280_humidity;BME280_pressure;Samples;Min_cycle;Max_cycle;Signal;HPM_P1;HPM_P2
2024/04/16 00:02:10;;;;;;;73.00;69.53;;;22.70;1.00;;;;;;2612200;54;20254;-67
2024/04/16 00:04:36;;;;;;;72.90;69.40;;;22.70;1.00;;;;;;2612674;47;20163;-67
2024/04/16 00:07:02;;;;;;;72.67;69.27;;;22.60;1.00;;;;;;2612189;54;20224;-67
2024/04/16 00:09:27;;;;;;;72.50;69.10;;;22.60;1.00;;;;;;2612493;54;20158;-67
2024/04/16 00:11:53;;;;;;;72.17;68.77;;;22.60;1.00;;;;;;2612325;54;20194;-67
2024/04/16 00:14:19;;;;;;;72.53;69.13;;;22.60;1.00;;;;;;2612395;54;20150;-67
2024/04/16 00:16:45;;;;;;;73.00;69.50;;;22.60;1.00;;;;;;2612890;54;20146;-67
2024/04/16 00:19:10;;;;;;;71.83;68.43;;;22.60;1.00;;;;;;2612809;54;20158;-66
2024/04/16 00:21:36;;;;;;;72.97;69.47;;;22.60;1.00;;;;;;2613324;54;20171;-65
2024/04/16 00:24:02;;;;;;;72.80;69.40;;;22.60;1.00;;;;;;2613163;54;20703;-65
2024/04/16 00:26:28;;;;;;;71.77;68.37;;;22.70;1.00;;;;;;2613576;54;20199;-65
2024/04/16 00:28:53;;;;;;;73.20;69.70;;;22.60;1.00;;;;;;2613608;54;20186;-66
2024/04/16 00:31:19;;;;;;;72.97;69.57;;;22.60;1.00;;;;;;2613182;54;20756;-66
2024/04/16 00:33:45;;;;;;;73.23;69.73;;;22.60;1.00;;;;;;2612955;54;20172;-66
2024/04/16 00:36:10;;;;;;;73.50;70.00;;;22.60;1.00;;;;;;2613369;54;20179;-73
2024/04/16 00:38:36;;;;;;;73.13;69.70;;;22.60;1.00;;;;;;2613479;54;20170;-73
2024/04/16 00:41:02;;;;;;;72.80;69.40;;;22.60;1.00;;;;;;2613640;54;20139;-74
2024/04/16 00:43:28;;;;;;;73.23;69.83;;;22.60;1.00;;;;;;2614102;47;20182;-73
2024/04/16 00:45:55;;;;;;;72.67;69.27;;;22.60;1.00;;;;;;2613982;54;20162;-66
2024/04/16 00:48:24;;;;;;;72.47;69.07;;;22.60;1.00;;;;;;2613317;54;20161;-67
2024/04/16 00:50:50;;;;;;;72.43;69.03;;;22.60;1.00;;;;;;2613349;47;20438;-67
2024/04/16 00:53:18;;;;;;;72.40;69.00;;;22.60;1.00;;;;;;2613734;39;20842;-67
2024/04/16 00:55:46;;;;;;;72.93;69.43;;;22.60;1.00;;;;;;2613500;54;20507;-64
2024/04/16 00:58:16;;;;;;;72.50;69.10;;;22.60;1.00;;;;;;2612817;39;20837;-68
2024/04/16 01:00:43;;;;;;;72.20;68.80;;;22.60;1.00;;;;;;2613226;54;21432;-67
2024/04/16 01:03:09;;;;;;;73.30;69.80;;;22.60;1.00;;;;;;2612793;47;20434;-67
2024/04/16 01:05:35;;;;;;;72.30;68.90;;;22.60;1.00;;;;;;2613087;54;20432;-67
2024/04/16 01:08:01;;;;;;;72.83;69.43;;;22.60;1.00;;;;;;2613408;54;20162;-67
2024/04/16 01:10:29;;;;;;;73.17;69.77;;;22.60;1.00;;;;;;2614344;39;20937;-67
2024/04/16 01:12:55;;;;;;;72.87;69.43;;;22.60;1.00;;;;;;2613224;51;20428;-67
2024/04/16 01:15:21;;;;;;;73.23;69.77;;;22.60;1.00;;;;;;2613243;54;20527;-67
2024/04/16 01:17:48;;;;;;;72.97;69.57;;;22.50;1.00;;;;;;2612929;47;20499;-66
2024/04/16 01:20:13;;;;;;;72.70;69.30;;;22.50;1.00;;;;;;2613210;54;20159;-68
2024/04/16 01:22:46;;;;;;;73.23;69.73;;;22.60;1.00;;;;;;2613082;54;20471;-67
2024/04/16 01:25:12;;;;;;;72.80;69.40;;;22.50;1.00;;;;;;2613150;54;20151;-68
2024/04/16 01:27:37;;;;;;;73.37;69.87;;;22.50;1.00;;;;;;2612817;54;20442;-66
2024/04/16 01:30:03;;;;;;;73.07;69.67;;;22.50;1.00;;;;;;2612910;54;20155;-66
2024/04/16 01:32:29;;;;;;;73.30;69.80;;;22.50;1.00;;;;;;2613325;54;20168;-66
2024/04/16 01:34:56;;;;;;;72.93;69.53;;;22.50;1.00;;;;;;2613186;54;20968;-67
2024/04/16 01:37:21;;;;;;;73.47;69.97;;;22.50;1.00;;;;;;2613256;54;20142;-67
2024/04/16 01:39:47;;;;;;;73.00;69.60;;;22.50;1.00;;;;;;2612887;54;20408;-67
2024/04/16 01:42:13;;;;;;;73.47;69.97;;;22.50;1.00;;;;;;2613154;54;20159;-66
2024/04/16 01:44:39;;;;;;;73.40;69.90;;;22.50;1.00;;;;;;2612914;54;20175;-68
2024/04/16 01:47:04;;;;;;;72.40;69.00;;;22.50;1.00;;;;;;2613492;54;20139;-67
2024/04/16 01:49:30;;;;;;;73.37;69.87;;;22.50;1.00;;;;;;2612883;54;20195;-67
2024/04/16 01:51:56;;;;;;;73.77;70.27;;;22.50;1.00;;;;;;2612932;54;20174;-67
2024/04/16 01:54:22;;;;;;;73.43;69.93;;;22.50;1.00;;;;;;2613349;54;20451;-67
2024/04/16 01:56:50;;;;;;;72.50;69.10;;;22.50;1.00;;;;;;2612698;54;20183;-69
2024/04/16 01:59:17;;;;;;;72.53;69.13;;;22.50;1.00;;;;;;2612871;54;20155;-68
2024/04/16 02:01:43;;;;;;;73.40;69.90;;;22.50;1.00;;;;;;2613069;54;20395;-68
2024/04/16 02:04:08;;;;;;;73.47;69.97;;;22.40;1.00;;;;;;2612679;47;21172;-69
2024/04/16 02:06:34;;;;;;;73.10;69.60;;;22.40;1.00;;;;;;2613062;54;20151;-70
2024/04/16 02:09:00;;;;;;;72.30;68.90;;;22.40;1.00;;;;;;2612991;54;20143;-71
2024/04/16 02:11:26;;;;;;;73.10;69.70;;;22.40;1.00;;;;;;2612966;54;20454;-70
2024/04/16 02:13:53;;;;;;;72.73;69.33;;;22.50;1.00;;;;;;2613565;54;20154;-70
2024/04/16 02:16:19;;;;;;;72.83;69.40;;;22.40;1.00;;;;;;2613259;54;20167;-71
2024/04/16 02:18:45;;;;;;;72.60;69.20;;;22.40;1.00;;;;;;2612961;54;21114;-71
2024/04/16 02:21:11;;;;;;;73.90;70.40;;;22.50;1.00;;;;;;2612795;47;20290;-71
2024/04/16 02:23:36;;;;;;;73.80;70.30;;;22.50;1.00;;;;;;2612955;51;20427;-69
2024/04/16 02:26:02;;;;;;;73.60;70.10;;;22.40;1.00;;;;;;2612882;54;20266;-69
2024/04/16 02:28:28;;;;;;;74.10;70.60;;;22.40;1.00;;;;;;2612952;54;20247;-70
2024/04/16 02:30:54;;;;;;;73.63;70.13;;;22.40;1.00;;;;;;2613546;39;20624;-71
2024/04/16 02:33:20;;;;;;;73.53;70.03;;;22.40;1.00;;;;;;2612863;54;20161;-70
2024/04/16 02:35:46;;;;;;;72.83;69.43;;;22.40;1.00;;;;;;2613107;54;20701;-70
2024/04/16 02:38:14;;;;;;;73.73;70.23;;;22.40;1.00;;;;;;2613304;54;20419;-71
2024/04/16 02:40:40;;;;;;;73.77;70.27;;;22.40;1.00;;;;;;2612391;47;20412;-69
2024/04/16 02:43:06;;;;;;;74.17;70.67;;;22.40;1.00;;;;;;2612721;54;21728;-69
2024/04/16 02:45:31;;;;;;;74.30;70.80;;;22.40;1.00;;;;;;2612941;54;20420;-70
2024/04/16 02:47:57;;;;;;;74.20;70.70;;;22.40;1.00;;;;;;2612942;54;20154;-70
2024/04/16 02:50:23;;;;;;;74.47;70.97;;;22.40;1.00;;;;;;2612847;47;20155;-69
2024/04/16 02:52:49;;;;;;;74.97;71.37;;;22.40;1.00;;;;;;2612961;54;20179;-70
2024/04/16 02:55:19;;;;;;;74.63;71.03;;;22.40;1.00;;;;;;2612767;47;20768;-70
2024/04/16 02:57:45;;;;;;;74.10;70.50;;;22.40;1.00;;;;;;2612117;54;20696;-70
2024/04/16 03:00:11;;;;;;;73.47;69.97;;;22.40;1.00;;;;;;2612871;54;20451;-70
2024/04/16 03:02:38;;;;;;;74.20;70.70;;;22.40;1.00;;;;;;2612970;54;20183;-70
2024/04/16 03:05:04;;;;;;;73.30;69.80;;;22.40;1.00;;;;;;2614126;39;20876;-70
2024/04/16 03:07:30;;;;;;;74.47;70.97;;;22.40;1.00;;;;;;2612231;47;20452;-67
2024/04/16 03:09:56;;;;;;;75.00;71.40;;;22.40;1.00;;;;;;2612720;54;20692;-66
2024/04/16 03:12:22;;;;;;;75.03;71.43;;;22.40;1.00;;;;;;2612935;47;20458;-67
2024/04/16 03:14:51;;;;;;;74.73;71.13;;;22.40;1.00;;;;;;2613498;39;20781;-67
2024/04/16 03:17:17;;;;;;;75.13;71.53;;;22.40;1.00;;;;;;2613393;54;20434;-70
2024/04/16 03:19:43;;;;;;;74.10;70.60;;;22.40;1.00;;;;;;2612897;54;20423;-69
2024/04/16 03:22:09;;;;;;;74.77;71.17;;;22.40;1.00;;;;;;2612803;54;20408;-70
2024/04/16 03:24:35;;;;;;;74.60;71.00;;;22.40;1.00;;;;;;2612755;47;20171;-70
2024/04/16 03:27:01;;;;;;;74.80;71.30;;;22.40;1.00;;;;;;2613344;54;20182;-78
2024/04/16 03:29:27;;;;;;;75.53;71.93;;;22.30;1.00;;;;;;2614011;54;20167;-78
2024/04/16 03:31:52;;;;;;;74.83;71.27;;;22.30;1.00;;;;;;2613782;54;20686;-78
2024/04/16 03:34:18;;;;;;;75.63;71.93;;;22.40;1.00;;;;;;2613638;47;20441;-78
2024/04/16 03:36:44;;;;;;;75.17;71.57;;;22.40;1.00;;;;;;2613623;54;20179;-78
2024/04/16 03:39:10;;;;;;;75.33;71.63;;;22.40;1.00;;;;;;2613615;54;20150;-78
2024/04/16 03:41:35;;;;;;;75.50;71.80;;;22.40;1.00;;;;;;2613556;54;20195;-78
2024/04/16 03:44:01;;;;;;;75.53;71.83;;;22.40;1.00;;;;;;2613794;54;20139;-78
2024/04/16 03:46:27;;;;;;;75.47;71.77;;;22.40;1.00;;;;;;2612163;54;20162;-76
2024/04/16 03:48:53;;;;;;;76.50;72.70;;;22.30;1.00;;;;;;2613580;54;20223;-79
2024/04/16 03:51:19;;;;;;;75.20;71.50;;;22.30;1.00;;;;;;2613297;54;20180;-78
2024/04/16 03:53:45;;;;;;;76.00;72.30;;;22.30;1.00;;;;;;2614056;39;20874;-78
2024/04/16 03:56:11;;;;;;;76.17;72.37;;;22.30;1.00;;;;;;2613806;54;20419;-77
2024/04/16 03:58:44;;;;;;;75.33;71.63;;;22.30;1.00;;;;;;2613863;47;20411;-78
2024/04/16 04:01:12;;;;;;;75.47;71.87;;;22.30;1.00;;;;;;2613939;54;20181;-78
2024/04/16 04:03:39;;;;;;;75.90;72.20;;;22.30;1.00;;;;;;2613974;54;20395;-79
2024/04/16 04:06:05;;;;;;;75.60;71.90;;;22.30;1.00;;;;;;2613778;54;20470;-76
2024/04/16 04:08:31;;;;;;;76.20;72.50;;;22.40;1.00;;;;;;2614150;54;20435;-77
2024/04/16 04:10:56;;;;;;;75.30;71.70;;;22.50;1.00;;;;;;2613840;54;20462;-78
2024/04/16 04:13:23;;;;;;;75.27;71.67;;;22.40;1.00;;;;;;2614476;54;20683;-78
2024/04/16 04:15:48;;;;;;;76.53;72.73;;;22.40;1.00;;;;;;2613879;54;20162;-68
2024/04/16 04:18:14;;;;;;;76.13;72.33;;;22.40;1.00;;;;;;2613380;54;20963;-64
2024/04/16 04:20:40;;;;;;;75.90;72.20;;;22.40;1.00;;;;;;2613092;54;20155;-64
2024/04/16 04:23:07;;;;;;;76.67;72.87;;;22.50;1.00;;;;;;2613162;54;20706;-64
2024/04/16 04:25:33;;;;;;;76.20;72.50;;;22.50;1.00;;;;;;2613249;47;20423;-63
2024/04/16 04:27:58;;;;;;;76.23;72.43;;;22.40;1.00;;;;;;2613424;47;20415;-70
2024/04/16 04:30:24;;;;;;;77.23;73.40;;;22.40;1.00;;;;;;2613864;54;20142;-71
2024/04/16 04:32:51;;;;;;;76.23;72.53;;;22.30;1.00;;;;;;2613166;54;20270;-70
2024/04/16 04:35:18;;;;;;;76.40;72.70;;;22.40;1.00;;;;;;2613832;54;20185;-72
2024/04/16 04:37:43;;;;;;;76.73;72.93;;;22.40;1.00;;;;;;2613834;54;20384;-70
2024/04/16 04:40:10;;;;;;;76.30;72.60;;;22.30;1.00;;;;;;2612760;54;20399;-69
2024/04/16 04:42:35;;;;;;;76.10;72.50;;;22.30;1.00;;;;;;2612762;54;20384;-70
2024/04/16 04:45:02;;;;;;;76.50;72.80;;;22.30;1.00;;;;;;2612401;54;20436;-70
2024/04/16 04:47:28;;;;;;;76.83;73.13;;;22.30;1.00;;;;;;2613431;54;20159;-70
2024/04/16 04:49:54;;;;;;;76.77;73.07;;;22.30;1.00;;;;;;2613057;39;20832;-70
2024/04/16 04:52:19;;;;;;;77.00;73.30;;;22.30;1.00;;;;;;2612791;54;20174;-70
2024/04/16 04:54:45;;;;;;;76.17;72.47;;;22.30;1.00;;;;;;2612790;54;20447;-71
2024/04/16 04:57:11;;;;;;;76.97;73.27;;;22.30;1.00;;;;;;2612702;54;20162;-70
2024/04/16 04:59:37;;;;;;;76.87;73.17;;;22.30;1.00;;;;;;2612816;54;20671;-71
2024/04/16 05:02:02;;;;;;;76.70;73.00;;;22.30;1.00;;;;;;2612653;54;20150;-70
2024/04/16 05:04:28;;;;;;;76.23;72.53;;;22.30;1.00;;;;;;2612502;54;20174;-71
2024/04/16 05:06:54;;;;;;;76.20;72.50;;;22.30;1.00;;;;;;2612933;54;20427;-70
2024/04/16 05:09:20;;;;;;;76.47;72.77;;;22.30;1.00;;;;;;2612672;48;20174;-70
2024/04/16 05:11:46;;;;;;;75.63;72.03;;;22.30;1.00;;;;;;2612208;54;20166;-70
2024/04/16 05:14:12;;;;;;;76.30;72.70;;;22.30;1.00;;;;;;2613185;54;20376;-69
2024/04/16 05:16:38;;;;;;;77.30;73.60;;;22.30;1.00;;;;;;2612449;54;20730;-70
2024/04/16 05:19:04;;;;;;;77.37;73.67;;;22.30;1.00;;;;;;2612567;54;20475;-70
2024/04/16 05:21:30;;;;;;;77.20;73.50;;;22.30;1.00;;;;;;2612832;47;20185;-71
2024/04/16 05:23:56;;;;;;;77.43;73.73;;;22.30;1.00;;;;;;2612593;54;20449;-70
2024/04/16 05:26:22;;;;;;;77.37;73.67;;;22.30;1.00;;;;;;2612946;47;20538;-68
2024/04/16 05:28:49;;;;;;;75.40;71.90;;;22.30;1.00;;;;;;2610965;54;20415;-70
2024/04/16 05:31:15;;;;;;;74.33;70.93;;;22.30;1.00;;;;;;2612679;54;20439;-69
2024/04/16 05:33:41;;;;;;;74.80;71.30;;;22.30;1.00;;;;;;2612654;54;20408;-70
2024/04/16 05:36:07;;;;;;;73.73;70.33;;;22.40;1.00;;;;;;2612884;54;20971;-69
2024/04/16 05:38:34;;;;;;;73.30;70.00;;;22.30;1.00;;;;;;2613462;47;20159;-71
2024/04/16 05:41:00;;;;;;;74.40;70.90;;;22.50;1.00;;;;;;2613109;54;20403;-75
2024/04/16 05:43:25;;;;;;;74.33;70.83;;;22.70;1.00;;;;;;2613965;54;20407;-72
2024/04/16 05:45:51;;;;;;;73.60;70.20;;;22.90;1.00;;;;;;2613235;54;20419;-69
2024/04/16 05:48:17;;;;;;;85.93;81.30;;;23.10;1.00;;;;;;2612421;54;20147;-76
2024/04/16 05:50:43;;;;;;;83.30;79.20;;;23.30;1.00;;;;;;2618881;54;20198;-67
2024/04/16 05:53:08;;;;;;;81.50;77.60;;;23.50;1.00;;;;;;2620714;54;20186;-71
2024/04/16 05:55:34;;;;;;;82.60;78.60;;;23.60;1.00;;;;;;2614142;54;20155;-70
2024/04/16 05:58:00;;;;;;;82.07;78.07;;;23.70;1.00;;;;;;2612546;54;20167;-67
2024/04/16 06:00:26;;;;;;;82.33;78.33;;;23.70;1.00;;;;;;2613165;39;20557;-67
2024/04/16 06:02:52;;;;;;;82.87;78.87;;;23.70;1.00;;;;;;2613423;54;20434;-68
2024/04/16 06:05:17;;;;;;;89.50;84.80;;;23.80;1.00;;;;;;2612343;54;20945;-64
2024/04/16 06:07:43;;;;;;;89.50;84.80;;;23.90;1.00;;;;;;2612675;47;20166;-66
2024/04/16 06:10:09;;;;;;;90.90;86.10;;;23.80;1.00;;;;;;2612361;54;20162;-67
2024/04/16 06:12:35;;;;;;;85.40;80.90;;;23.80;1.00;;;;;;2612944;54;20431;-68
2024/04/16 06:15:01;;;;;;;85.37;80.87;;;23.60;1.00;;;;;;2612776;54;20157;-67
2024/04/16 06:17:26;;;;;;;85.77;81.27;;;23.50;1.00;;;;;;2612968;54;20147;-68
2024/04/16 06:19:52;;;;;;;82.60;78.50;;;23.40;1.00;;;;;;2609289;54;20182;-67
2024/04/16 06:22:18;;;;;;;81.60;77.50;;;23.40;1.00;;;;;;2609835;54;20165;-68
2024/04/16 06:24:44;;;;;;;80.97;76.97;;;23.30;1.00;;;;;;2611338;54;20173;-67
2024/04/16 06:27:10;;;;;;;82.03;77.93;;;23.20;1.00;;;;;;2611883;54;20205;-67
2024/04/16 06:29:37;;;;;;;83.20;79.00;;;23.10;1.00;;;;;;2610357;54;20242;-68
2024/04/16 06:32:07;;;;;;;83.50;79.30;;;23.10;1.00;;;;;;2610765;54;20408;-67
2024/04/16 06:34:32;;;;;;;83.70;79.50;;;23.00;1.00;;;;;;2611012;54;20436;-67
2024/04/16 06:36:58;;;;;;;83.00;78.90;;;23.00;1.00;;;;;;2612657;54;20431;-77
2024/04/16 06:39:24;;;;;;;82.97;78.77;;;22.90;1.00;;;;;;2613115;54;20157;-76
2024/04/16 06:41:50;;;;;;;84.17;79.87;;;22.90;1.00;;;;;;2613324;54;20159;-77
2024/04/16 06:44:15;;;;;;;84.30;80.00;;;22.80;1.00;;;;;;2613395;54;20147;-77
2024/04/16 06:46:41;;;;;;;83.47;79.27;;;22.80;1.00;;;;;;2612331;47;20166;-69
2024/04/16 06:49:07;;;;;;;84.17;79.87;;;22.80;1.00;;;;;;2612047;47;20424;-69
2024/04/16 06:51:33;;;;;;;84.10;79.90;;;22.80;1.00;;;;;;2611999;54;21009;-68
2024/04/16 06:53:59;;;;;;;83.00;78.80;;;22.70;1.00;;;;;;2612294;54;20232;-69
2024/04/16 06:56:24;;;;;;;83.30;79.00;;;22.70;1.00;;;;;;2611471;47;20250;-76
2024/04/16 06:58:50;;;;;;;83.13;78.93;;;22.70;1.00;;;;;;2612625;47;20170;-78
2024/04/16 07:01:16;;;;;;;83.30;79.10;;;22.70;1.00;;;;;;2612932;54;20438;-78
2024/04/16 07:03:42;;;;;;;84.00;79.70;;;22.70;1.00;;;;;;2613345;54;20142;-78
2024/04/16 07:06:08;;;;;;;83.77;79.47;;;22.70;1.00;;;;;;2613424;54;20175;-78
2024/04/16 07:08:34;;;;;;;83.03;78.83;;;22.70;1.00;;;;;;2613674;39;20720;-78
2024/04/16 07:11:00;;;;;;;84.67;80.27;;;22.60;1.00;;;;;;2613282;54;20383;-78
2024/04/16 07:13:27;;;;;;;83.40;79.20;;;22.60;1.00;;;;;;2613221;54;20151;-78
2024/04/16 07:15:53;;;;;;;85.00;80.60;;;22.60;1.00;;;;;;2612831;47;20174;-77
2024/04/16 07:18:19;;;;;;;83.80;79.50;;;22.60;1.00;;;;;;2612741;54;20983;-77
2024/04/16 07:20:48;;;;;;;84.00;79.60;;;22.60;1.00;;;;;;2612435;54;20281;-77
2024/04/16 07:23:15;;;;;;;84.23;79.83;;;22.60;1.00;;;;;;2613332;54;20195;-77
2024/04/16 07:25:44;;;;;;;83.30;79.00;;;22.60;1.00;;;;;;2612777;54;20419;-77
2024/04/16 07:28:11;;;;;;;84.13;79.73;;;22.60;1.00;;;;;;2613603;47;20423;-77
2024/04/16 07:30:37;;;;;;;82.23;78.03;;;22.60;1.00;;;;;;2613697;54;20572;-77
2024/04/16 07:33:04;;;;;;;84.07;79.77;;;22.60;1.00;;;;;;2614011;54;20423;-77
2024/04/16 07:35:29;;;;;;;82.93;78.67;;;22.50;1.00;;;;;;2613611;47;20173;-77
2024/04/16 07:37:55;;;;;;;83.90;79.60;;;22.50;1.00;;;;;;2613959;54;20411;-77
2024/04/16 07:40:21;;;;;;;82.77;78.57;;;22.50;1.00;;;;;;2613753;47;20874;-77
2024/04/16 07:42:47;;;;;;;85.03;80.53;;;22.50;1.00;;;;;;2614332;47;20696;-78
2024/04/16 07:45:12;;;;;;;85.17;80.77;;;22.50;1.00;;;;;;2614051;48;20162;-77
2024/04/16 07:47:38;;;;;;;82.97;78.77;;;22.50;1.00;;;;;;2614099;54;20147;-73
2024/04/16 07:50:04;;;;;;;83.27;78.97;;;22.50;1.00;;;;;;2613087;54;20189;-73
2024/04/16 07:52:31;;;;;;;82.90;78.70;;;22.50;1.00;;;;;;2613243;54;20151;-72
2024/04/16 07:54:57;;;;;;;84.70;80.40;;;22.50;1.00;;;;;;2613400;54;20431;-72
2024/04/16 07:57:22;;;;;;;82.63;78.43;;;22.50;1.00;;;;;;2612598;54;20402;-77
2024/04/16 07:59:48;;;;;;;83.50;79.20;;;22.50;1.00;;;;;;2614175;54;20270;-76
2024/04/16 08:02:14;;;;;;;84.83;80.43;;;22.50;1.00;;;;;;2613426;54;20190;-77
2024/04/16 08:04:40;;;;;;;83.87;79.57;;;22.50;1.00;;;;;;2613678;54;20459;-76
2024/04/16 08:07:05;;;;;;;83.70;79.40;;;22.50;1.00;;;;;;2613793;54;20147;-77
2024/04/16 08:09:32;;;;;;;84.40;80.10;;;22.40;1.00;;;;;;2614136;54;20169;-77
2024/04/16 08:11:58;;;;;;;84.33;79.93;;;22.50;1.00;;;;;;2614277;47;21074;-77
2024/04/16 08:14:23;;;;;;;83.57;79.27;;;22.40;1.00;;;;;;2614070;54;20991;-77
2024/04/16 08:16:49;;;;;;;84.20;79.90;;;22.40;1.00;;;;;;2614192;54;20399;-77
2024/04/16 08:19:15;;;;;;;85.20;80.80;;;22.40;1.00;;;;;;2613377;54;20172;-77
2024/04/16 08:21:41;;;;;;;84.30;80.00;;;22.50;1.00;;;;;;2614185;54;20159;-76
2024/04/16 08:24:06;;;;;;;83.77;79.47;;;22.40;1.00;;;;;;2613875;54;20166;-77
2024/04/16 08:26:32;;;;;;;83.27;78.97;;;22.40;1.00;;;;;;2613520;54;20179;-77
2024/04/16 08:28:58;;;;;;;82.73;78.53;;;22.40;1.00;;;;;;2613218;47;20171;-77
2024/04/16 08:31:25;;;;;;;83.00;78.90;;;22.40;1.00;;;;;;2613651;54;20171;-77
2024/04/16 08:33:51;;;;;;;82.50;78.30;;;22.40;1.00;;;;;;2613954;54;20162;-76
2024/04/16 08:36:16;;;;;;;81.90;77.70;;;22.40;1.00;;;;;;2613934;54;20503;-78
2024/04/16 08:38:42;;;;;;;83.50;79.20;;;22.40;1.00;;;;;;2613277;54;20143;-76
2024/04/16 08:41:08;;;;;;;84.13;79.83;;;22.40;1.00;;;;;;2613285;54;20143;-75
2024/04/16 08:43:39;;;;;;;84.27;79.97;;;22.40;1.00;;;;;;2613530;54;20149;-76
2024/04/16 08:46:06;;;;;;;84.00;79.70;;;22.40;1.00;;;;;;2613501;54;20173;-75
2024/04/16 08:48:37;;;;;;;84.00;79.70;;;22.40;1.00;;;;;;2613225;54;20417;-75
2024/04/16 08:51:03;;;;;;;83.10;78.80;;;22.40;1.00;;;;;;2613533;54;20491;-76
2024/04/16 08:53:31;;;;;;;83.83;79.53;;;22.40;1.00;;;;;;2613687;39;20826;-76
2024/04/16 08:55:58;;;;;;;84.60;80.20;;;22.50;1.00;;;;;;2612841;54;20463;-76
2024/04/16 08:58:23;;;;;;;84.33;80.03;;;22.40;1.00;;;;;;2613615;54;20399;-76
2024/04/16 09:00:51;;;;;;;83.97;79.57;;;22.40;1.00;;;;;;2613285;54;20391;-76
2024/04/16 09:03:17;;;;;;;84.00;79.70;;;22.40;1.00;;;;;;2613723;39;20594;-77
2024/04/16 09:05:45;;;;;;;84.70;80.30;;;22.40;1.00;;;;;;2613119;54;20995;-77
2024/04/16 09:08:11;;;;;;;84.07;79.67;;;22.50;1.00;;;;;;2613380;54;20415;-73
2024/04/16 09:10:37;;;;;;;83.70;79.30;;;22.50;1.00;;;;;;2612783;54;20431;-74
2024/04/16 09:13:12;;;;;;;85.20;80.70;;;22.50;1.00;;;;;;2612877;54;20205;-73
2024/04/16 09:15:40;;;;;;;85.40;80.90;;;22.50;1.00;;;;;;2613474;31;20668;-73
2024/04/16 09:18:06;;;;;;;85.37;80.87;;;22.50;1.00;;;;;;2613674;47;20435;-78
2024/04/16 09:20:32;;;;;;;85.80;81.30;;;22.50;1.00;;;;;;2613235;54;20415;-77
2024/04/16 09:22:58;;;;;;;84.50;80.10;;;22.40;1.00;;;;;;2613465;54;20430;-78
2024/04/16 09:25:25;;;;;;;85.03;80.53;;;22.40;1.00;;;;;;2613716;54;20753;-77
2024/04/16 09:27:55;;;;;;;85.40;80.80;;;22.40;1.00;;;;;;2613248;54;20476;-77
2024/04/16 09:30:23;;;;;;;85.37;80.87;;;22.40;1.00;;;;;;2613687;54;20403;-77
2024/04/16 09:33:04;;;;;;;84.67;80.17;;;22.40;1.00;;;;;;2612415;54;20431;-79
2024/04/16 09:35:31;;;;;;;85.27;80.77;;;22.40;1.00;;;;;;2612484;54;20462;-78
2024/04/16 09:38:09;;;;;;;84.07;79.57;;;22.40;1.00;;;;;;2613349;54;20467;-77
2024/04/16 09:40:35;;;;;;;85.07;80.47;;;22.40;1.00;;;;;;2613365;54;20431;-78
2024/04/16 09:43:03;;;;;;;85.17;80.77;;;22.40;1.00;;;;;;2613486;54;20519;-78
2024/04/16 09:45:30;;;;;;;84.70;80.30;;;22.40;1.00;;;;;;2614114;39;21471;-77
2024/04/16 09:47:57;;;;;;;85.37;80.87;;;22.50;1.00;;;;;;2612730;54;20415;-77
2024/04/16 09:50:24;;;;;;;85.03;80.63;;;22.50;1.00;;;;;;2612722;54;20415;-76
2024/04/16 09:52:56;;;;;;;85.80;81.30;;;22.50;1.00;;;;;;2613168;39;21101;-78
2024/04/16 09:55:22;;;;;;;85.10;80.60;;;22.50;1.00;;;;;;2612433;54;20558;-78
2024/04/16 09:57:50;;;;;;;84.47;80.07;;;22.50;1.00;;;;;;2612647;47;20423;-77
2024/04/16 10:00:16;;;;;;;84.73;80.33;;;22.50;1.00;;;;;;2613096;54;20434;-77
2024/04/16 10:02:43;;;;;;;84.93;80.43;;;22.50;1.00;;;;;;2611609;54;20407;-78
2024/04/16 10:05:14;;;;;;;85.17;80.70;;;22.50;1.00;;;;;;2612236;54;20420;-77
2024/04/16 10:07:45;;;;;;;85.17;80.77;;;22.50;1.00;;;;;;2613076;54;20404;-77
2024/04/16 10:10:12;;;;;;;84.60;80.30;;;22.50;1.00;;;;;;2613323;54;20419;-77
2024/04/16 10:12:38;;;;;;;82.73;78.43;;;22.50;1.00;;;;;;2612996;54;20408;-78
2024/04/16 10:15:06;;;;;;;84.30;79.90;;;22.50;1.00;;;;;;2613297;39;20790;-77
2024/04/16 10:17:33;;;;;;;83.40;79.00;;;22.50;1.00;;;;;;2612337;54;20395;-74
2024/04/16 10:20:15;;;;;;;84.53;80.07;;;22.50;1.00;;;;;;2612705;39;20821;-73
2024/04/16 10:22:40;;;;;;;84.10;79.70;;;22.60;1.00;;;;;;2612715;54;20471;-73
2024/04/16 10:25:06;;;;;;;83.60;79.30;;;22.60;1.00;;;;;;2613169;54;20415;-73
2024/04/16 10:27:32;;;;;;;83.30;78.90;;;22.70;1.00;;;;;;2613250;54;20147;-75
2024/04/16 10:30:15;;;;;;;84.73;80.27;;;22.70;1.00;;;;;;2613051;54;20157;-76
2024/04/16 10:32:46;;;;;;;84.00;79.60;;;22.70;1.00;;;;;;2612676;54;20147;-77
2024/04/16 10:35:13;;;;;;;84.27;79.87;;;22.70;1.00;;;;;;2611799;54;20435;-77
2024/04/16 10:37:40;;;;;;;83.63;79.23;;;22.70;1.00;;;;;;2612747;54;20415;-71
2024/04/16 10:40:06;;;;;;;84.47;80.07;;;22.70;1.00;;;;;;2612199;54;20423;-71
2024/04/16 10:42:37;;;;;;;85.27;80.67;;;22.70;1.00;;;;;;2612575;54;20454;-71
2024/04/16 10:45:04;;;;;;;84.67;80.17;;;22.70;1.00;;;;;;2612840;39;20874;-71
2024/04/16 10:47:31;;;;;;;85.13;80.70;;;22.70;1.00;;;;;;2612513;54;20428;-71
2024/04/16 10:49:58;;;;;;;84.90;80.40;;;22.60;1.00;;;;;;2612840;39;20852;-71
2024/04/16 10:52:24;;;;;;;85.20;80.73;;;22.60;1.00;;;;;;2612236;54;20478;-72
2024/04/16 10:54:52;;;;;;;85.20;80.70;;;22.70;1.00;;;;;;2612454;54;21065;-70
2024/04/16 10:57:19;;;;;;;85.40;81.00;;;22.60;1.00;;;;;;2612521;51;20178;-70
2024/04/16 10:59:45;;;;;;;85.70;81.20;;;22.70;1.00;;;;;;2611974;54;20467;-71
2024/04/16 11:02:11;;;;;;;84.03;79.63;;;22.70;1.00;;;;;;2609996;54;20416;-70
2024/04/16 11:04:38;;;;;;;84.80;80.40;;;22.70;1.00;;;;;;2611914;54;20415;-70
2024/04/16 11:07:04;;;;;;;85.17;80.67;;;22.70;1.00;;;;;;2612448;54;20158;-71
2024/04/16 11:09:31;;;;;;;84.73;80.33;;;22.70;1.00;;;;;;2612586;54;20412;-71
2024/04/16 11:11:58;;;;;;;83.60;79.23;;;22.70;1.00;;;;;;2612365;54;20445;-71
2024/04/16 11:14:25;;;;;;;83.37;78.97;;;22.70;1.00;;;;;;2612366;54;20400;-71
2024/04/16 11:16:51;;;;;;;83.47;79.07;;;22.70;1.00;;;;;;2612223;54;20416;-71
2024/04/16 11:19:21;;;;;;;83.00;78.70;;;22.70;1.00;;;;;;2611489;54;20407;-71
2024/04/16 11:21:47;;;;;;;83.30;78.90;;;22.70;1.00;;;;;;2612407;54;20407;-73
2024/04/16 11:24:13;;;;;;;82.90;78.60;;;22.70;1.00;;;;;;2612349;54;20390;-72
2024/04/16 11:26:39;;;;;;;84.87;80.40;;;22.70;1.00;;;;;;2611194;54;20431;-73
2024/04/16 11:29:05;;;;;;;83.80;79.50;;;22.70;1.00;;;;;;2612470;54;20464;-72
2024/04/16 11:31:31;;;;;;;83.97;79.57;;;22.70;1.00;;;;;;2611515;54;20414;-72
2024/04/16 11:33:57;;;;;;;81.37;77.17;;;22.70;1.00;;;;;;2612207;54;20154;-72
2024/04/16 11:36:23;;;;;;;80.93;76.83;;;22.80;1.00;;;;;;2612029;54;20945;-66
2024/04/16 11:38:52;;;;;;;83.50;79.20;;;22.80;1.00;;;;;;2611579;54;20434;-65
2024/04/16 11:41:18;;;;;;;81.60;77.40;;;22.70;1.00;;;;;;2611621;54;20687;-65
2024/04/16 11:43:47;;;;;;;81.60;77.40;;;22.70;1.00;;;;;;2611918;54;20400;-66
2024/04/16 11:46:14;;;;;;;82.60;78.30;;;22.70;1.00;;;;;;2612490;54;20404;-76
2024/04/16 11:48:43;;;;;;;81.63;77.43;;;22.70;1.00;;;;;;2613250;39;20807;-77
2024/04/16 11:51:11;;;;;;;81.90;77.70;;;22.70;1.00;;;;;;2612599;54;20399;-77
2024/04/16 11:53:37;;;;;;;82.97;78.77;;;22.70;1.00;;;;;;2612587;54;20447;-76
2024/04/16 11:56:08;;;;;;;82.30;78.10;;;22.70;1.00;;;;;;2612513;48;20415;-77
2024/04/16 11:58:34;;;;;;;81.60;77.40;;;22.70;1.00;;;;;;2612249;54;20415;-76
2024/04/16 12:01:00;;;;;;;81.10;76.90;;;22.70;1.00;;;;;;2611848;54;20384;-76
2024/04/16 12:03:26;;;;;;;81.27;77.07;;;22.70;1.00;;;;;;2612749;47;20423;-77
2024/04/16 12:05:52;;;;;;;81.40;77.20;;;22.70;1.00;;;;;;2612353;54;20478;-77
2024/04/16 12:08:18;;;;;;;82.50;78.20;;;22.70;1.00;;;;;;2612909;54;20159;-77
2024/04/16 12:10:44;;;;;;;82.70;78.40;;;22.70;1.00;;;;;;2612679;54;20143;-77
2024/04/16 12:13:10;;;;;;;83.73;79.43;;;22.70;1.00;;;;;;2612686;54;20418;-76
2024/04/16 12:15:38;;;;;;;82.90;78.70;;;22.70;1.00;;;;;;2613851;54;20427;-76
2024/04/16 12:18:05;;;;;;;82.57;78.30;;;22.70;1.00;;;;;;2614209;39;20773;-77
2024/04/16 12:20:31;;;;;;;83.90;79.60;;;22.70;1.00;;;;;;2613646;54;20394;-77
2024/04/16 12:22:56;;;;;;;83.20;78.90;;;22.70;1.00;;;;;;2613847;54;20410;-77
2024/04/16 12:25:22;;;;;;;85.00;80.60;;;22.70;1.00;;;;;;2613073;54;20935;-78
2024/04/16 12:27:48;;;;;;;84.43;80.13;;;22.70;1.00;;;;;;2612813;54;20166;-77
2024/04/16 12:30:14;;;;;;;84.50;80.10;;;22.70;1.00;;;;;;2613199;54;20142;-78
2024/04/16 12:32:40;;;;;;;82.67;78.47;;;22.80;1.00;;;;;;2613005;54;20166;-76